Time;durP1;ratioP1;P1;durP2;ratioP2;P2;SDS_P1;SDS_P2;PMS_P1;PMS_P2;Temp;Humidity;BMP_temperature;BMP_pressure;BME280_temperature;BME280_humidity;BME280_pressure;Samples;Min_cycle;Max_cycle;Signal;HPM_P1;HPM_P2
2023/01/31 00:00:24;;;;;;;7.10;6.45;;;;;;;;;;5031355;28;20124;-75
2023/01/31 00:02:50;;;;;;;6.47;5.93;;;;;;;;;;5030223;28;20037;-74
2023/01/31 00:05:18;;;;;;;6.93;6.30;;;;;;;;;;5034741;28;20040;-74
2023/01/31 00:07:45;;;;;;;7.18;6.57;;;;;;;;;;5032666;28;20526;-74
2023/01/31 00:10:11;;;;;;;5.10;4.70;;;;;;;;;;5063785;28;20083;-74
2023/01/31 00:12:38;;;;;;;7.15;5.90;;;;;;;;;;5030116;28;20451;-74
2023/01/31 00:15:04;;;;;;;6.28;5.82;;;;;;;;;;5031449;28;20041;-75
2023/01/31 00:17:31;;;;;;;10.93;7.32;;;;;;;;;;5031213;28;20113;-76
2023/01/31 00:19:57;;;;;;;7.38;6.82;;;;;;;;;;5029679;28;20590;-75
2023/01/31 00:22:23;;;;;;;7.75;7.00;;;;;;;;;;5021024;28;20030;-75
2023/01/31 00:24:49;;;;;;;8.02;7.28;;;;;;;;;;5009998;28;20085;-75
2023/01/31 00:27:15;;;;;;;7.05;6.50;;;;;;;;;;5026276;28;20065;-74
2023/01/31 00:29:41;;;;;;;7.25;6.70;;;;;;;;;;5011322;28;20497;-75
2023/01/31 00:32:07;;;;;;;9.43;8.63;;;;;;;;;;5011331;28;20037;-75
2023/01/31 00:34:33;;;;;;;10.73;7.32;;;;;;;;;;5011237;28;20056;-75
2023/01/31 00:36:59;;;;;;;9.35;8.55;;;;;;;;;;5011207;28;20046;-74
2023/01/31 00:39:25;;;;;;;8.88;7.97;;;;;;;;;;5026282;28;20041;-74
2023/01/31 00:41:51;;;;;;;8.75;7.85;;;;;;;;;;5026676;28;20034;-74
2023/01/31 00:44:18;;;;;;;10.45;9.15;;;;;;;;;;5010596;28;20048;-75
2023/01/31 00:46:44;;;;;;;8.45;7.75;;;;;;;;;;5011523;28;20038;-74
2023/01/31 00:49:10;;;;;;;8.35;6.18;;;;;;;;;;5011194;28;20045;-74
2023/01/31 00:51:36;;;;;;;10.38;7.72;;;;;;;;;;5026150;28;20037;-74
2023/01/31 00:54:02;;;;;;;8.98;8.10;;;;;;;;;;5009584;28;20048;-75
2023/01/31 00:56:28;;;;;;;7.75;6.80;;;;;;;;;;5009452;28;20026;-73
2023/01/31 00:58:54;;;;;;;8.38;7.50;;;;;;;;;;5036844;28;20044;-75
2023/01/31 01:01:22;;;;;;;7.75;6.82;;;;;;;;;;5030381;28;20037;-75
2023/01/31 01:03:50;;;;;;;6.68;6.13;;;;;;;;;;5029351;28;20065;-74
2023/01/31 01:06:16;;;;;;;5.28;4.82;;;;;;;;;;5012775;28;20072;-75
2023/01/31 01:08:42;;;;;;;8.27;7.57;;;;;;;;;;5030526;28;20044;-75
2023/01/31 01:11:10;;;;;;;7.95;7.15;;;;;;;;;;5030691;28;20083;-74
2023/01/31 01:13:36;;;;;;;7.85;7.18;;;;;;;;;;5030135;28;20037;-74
2023/01/31 01:16:10;;;;;;;9.20;8.38;;;;;;;;;;5009240;28;20053;-74
2023/01/31 01:18:37;;;;;;;7.40;6.80;;;;;;;;;;5008849;28;20037;-76
2023/01/31 01:21:10;;;;;;;7.47;6.97;;;;;;;;;;5025600;28;20030;-74
2023/01/31 01:23:37;;;;;;;9.43;7.93;;;;;;;;;;5008704;28;20381;-75
2023/01/31 01:26:04;;;;;;;9.18;7.78;;;;;;;;;;5009111;28;20084;-74
2023/01/31 01:28:34;;;;;;;7.93;7.13;;;;;;;;;;5010041;28;20037;-75
2023/01/31 01:31:06;;;;;;;6.90;6.28;;;;;;;;;;5010224;28;20034;-74
2023/01/31 01:33:32;;;;;;;5.25;4.85;;;;;;;;;;5018649;28;20159;-75
2023/01/31 01:36:01;;;;;;;10.55;6.93;;;;;;;;;;5029950;28;20806;-75
2023/01/31 01:38:28;;;;;;;7.75;7.18;;;;;;;;;;5030475;28;20075;-74
2023/01/31 01:40:54;;;;;;;7.43;6.68;;;;;;;;;;5030467;28;20630;-73
2023/01/31 01:43:21;;;;;;;6.80;6.30;;;;;;;;;;5028421;28;20048;-74
2023/01/31 01:45:48;;;;;;;6.40;5.55;;;;;;;;;;5028620;28;20052;-73
2023/01/31 01:48:16;;;;;;;6.28;5.70;;;;;;;;;;5029467;28;20044;-73
2023/01/31 01:50:46;;;;;;;10.82;9.88;;;;;;;;;;5045100;28;20091;-74
2023/01/31 01:53:17;;;;;;;6.72;6.20;;;;;;;;;;5030160;28;20385;-74
2023/01/31 01:55:45;;;;;;;9.88;8.82;;;;;;;;;;5028410;28;20037;-74
2023/01/31 01:58:31;;;;;;;8.73;7.97;;;;;;;;;;5045642;28;20115;-74
2023/01/31 02:00:57;;;;;;;8.70;8.00;;;;;;;;;;5028102;28;20427;-74
2023/01/31 02:03:23;;;;;;;6.05;5.55;;;;;;;;;;5028469;28;20041;-73
2023/01/31 02:05:53;;;;;;;8.48;7.70;;;;;;;;;;5061605;28;20167;-73
2023/01/31 02:08:20;;;;;;;8.55;7.85;;;;;;;;;;5044202;28;20046;-72
2023/01/31 02:10:48;;;;;;;8.05;7.40;;;;;;;;;;5028461;28;20041;-74
2023/01/31 02:13:14;;;;;;;8.57;7.72;;;;;;;;;;5027927;28;20199;-74
2023/01/31 02:15:43;;;;;;;8.65;6.07;;;;;;;;;;5029105;28;20038;-73
2023/01/31 02:18:09;;;;;;;7.43;6.82;;;;;;;;;;5027768;28;20029;-73
2023/01/31 02:20:50;;;;;;;9.25;8.02;;;;;;;;;;5027489;28;20037;-74
2023/01/31 02:23:16;;;;;;;7.32;5.80;;;;;;;;;;5027441;28;20029;-75
2023/01/31 02:25:54;;;;;;;11.32;7.45;;;;;;;;;;5027763;28;20041;-74
2023/01/31 02:28:20;;;;;;;8.07;6.95;;;;;;;;;;4994442;28;20195;-75
2023/01/31 02:30:49;;;;;;;7.97;7.18;;;;;;;;;;5060958;28;20038;-76
2023/01/31 02:33:34;;;;;;;7.35;6.75;;;;;;;;;;5027362;28;20120;-74
2023/01/31 02:36:07;;;;;;;7.05;6.43;;;;;;;;;;5027176;28;20456;-74
2023/01/31 02:38:40;;;;;;;5.88;5.38;;;;;;;;;;5043866;28;20487;-75
2023/01/31 02:41:17;;;;;;;5.47;4.95;;;;;;;;;;5011121;28;20459;-75
2023/01/31 02:46:40;;;;;;;12.05;7.22;;;;;;;;;;5027341;28;20042;-75
2023/01/31 02:49:33;;;;;;;8.57;7.93;;;;;;;;;;5027528;28;20530;-74
2023/01/31 02:52:15;;;;;;;9.88;8.32;;;;;;;;;;5027589;28;20624;-74
2023/01/31 02:57:38;;;;;;;5.80;5.20;;;;;;;;;;5027231;28;20095;-76
2023/01/31 03:00:05;;;;;;;6.57;5.93;;;;;;;;;;5027386;28;20052;-76
2023/01/31 03:02:31;;;;;;;6.43;5.38;;;;;;;;;;5011489;28;20124;-74
2023/01/31 03:04:57;;;;;;;9.60;8.77;;;;;;;;;;5028511;28;20121;-76
2023/01/31 03:07:25;;;;;;;7.50;6.80;;;;;;;;;;5043088;28;20118;-75
2023/01/31 03:09:52;;;;;;;9.10;8.20;;;;;;;;;;5027276;28;20094;-75
2023/01/31 03:12:19;;;;;;;8.23;7.45;;;;;;;;;;5025270;28;20038;-74
2023/01/31 03:14:51;;;;;;;7.53;6.93;;;;;;;;;;5027140;28;20523;-75
2023/01/31 03:17:33;;;;;;;9.25;8.35;;;;;;;;;;5043754;28;20033;-75
2023/01/31 03:20:02;;;;;;;10.10;9.20;;;;;;;;;;5027050;28;20068;-75
2023/01/31 03:22:31;;;;;;;9.30;8.35;;;;;;;;;;5043806;28;20060;-74
2023/01/31 03:24:58;;;;;;;7.18;6.50;;;;;;;;;;5026914;28;20042;-75
2023/01/31 03:27:24;;;;;;;9.07;7.80;;;;;;;;;;5026309;28;20037;-74
2023/01/31 03:29:52;;;;;;;7.43;6.70;;;;;;;;;;5043607;28;20496;-74
2023/01/31 03:32:23;;;;;;;8.38;7.68;;;;;;;;;;5038750;28;20519;-76
2023/01/31 03:34:50;;;;;;;7.40;6.47;;;;;;;;;;5026907;28;20033;-76
2023/01/31 03:37:22;;;;;;;9.32;8.20;;;;;;;;;;5026439;28;20057;-76
2023/01/31 03:39:50;;;;;;;10.68;9.77;;;;;;;;;;5026697;28;20111;-76
2023/01/31 03:42:19;;;;;;;10.18;9.00;;;;;;;;;;5024529;28;20064;-76
2023/01/31 03:44:45;;;;;;;11.15;8.93;;;;;;;;;;5042623;28;20048;-76
2023/01/31 03:47:16;;;;;;;7.38;6.63;;;;;;;;;;5028168;28;20108;-76
2023/01/31 03:49:42;;;;;;;9.93;8.95;;;;;;;;;;5027995;28;20437;-75
2023/01/31 03:52:08;;;;;;;5.93;5.43;;;;;;;;;;5009276;28;20040;-76
2023/01/31 03:54:39;;;;;;;8.45;7.65;;;;;;;;;;5026195;28;20045;-76
2023/01/31 03:57:14;;;;;;;8.27;7.50;;;;;;;;;;5026684;28;20488;-77
2023/01/31 03:59:40;;;;;;;9.15;8.35;;;;;;;;;;5026656;28;20337;-76
2023/01/31 04:02:07;;;;;;;6.97;6.35;;;;;;;;;;5030067;28;20052;-77
2023/01/31 04:04:33;;;;;;;8.02;7.30;;;;;;;;;;5021398;28;20547;-76
2023/01/31 04:07:00;;;;;;;8.50;7.55;;;;;;;;;;5027345;28;20507;-75
2023/01/31 04:09:26;;;;;;;12.02;10.90;;;;;;;;;;5026983;28;20408;-76
2023/01/31 04:11:52;;;;;;;8.88;7.97;;;;;;;;;;5028626;28;20496;-76
2023/01/31 04:14:18;;;;;;;9.70;8.73;;;;;;;;;;5009681;28;20598;-76
2023/01/31 04:16:44;;;;;;;13.27;12.10;;;;;;;;;;5037578;28;20045;-76
2023/01/31 04:19:11;;;;;;;8.88;7.97;;;;;;;;;;5037518;28;20060;-76
2023/01/31 04:21:37;;;;;;;6.40;5.90;;;;;;;;;;5029976;28;20048;-76
2023/01/31 04:24:03;;;;;;;8.65;7.32;;;;;;;;;;5047571;28;20407;-75
2023/01/31 04:26:29;;;;;;;8.23;7.43;;;;;;;;;;5031574;28;20620;-75
2023/01/31 04:28:55;;;;;;;14.60;13.13;;;;;;;;;;5051834;28;20492;-75
2023/01/31 04:31:22;;;;;;;9.18;7.82;;;;;;;;;;5037183;28;20499;-75
2023/01/31 04:33:47;;;;;;;12.13;10.88;;;;;;;;;;5041170;28;20052;-76
2023/01/31 04:36:14;;;;;;;7.60;6.88;;;;;;;;;;5040924;28;20499;-76
2023/01/31 04:38:40;;;;;;;15.52;12.15;;;;;;;;;;5037413;28;20650;-76
2023/01/31 04:41:06;;;;;;;10.15;9.18;;;;;;;;;;5042432;28;20037;-77
2023/01/31 04:43:32;;;;;;;8.20;7.45;;;;;;;;;;5038836;28;20139;-75
2023/01/31 04:45:58;;;;;;;10.43;9.43;;;;;;;;;;5040464;28;20041;-77
2023/01/31 04:48:24;;;;;;;10.18;9.23;;;;;;;;;;5031803;28;20059;-75
2023/01/31 04:50:50;;;;;;;14.13;12.63;;;;;;;;;;5032422;28;20057;-75
2023/01/31 04:53:16;;;;;;;8.73;6.85;;;;;;;;;;5031073;28;20092;-76
2023/01/31 04:55:42;;;;;;;9.93;8.80;;;;;;;;;;5035282;28;20029;-75
2023/01/31 04:58:08;;;;;;;8.48;7.68;;;;;;;;;;5043553;28;20108;-77
2023/01/31 05:00:35;;;;;;;11.50;8.10;;;;;;;;;;5038961;28;20156;-76
2023/01/31 05:03:01;;;;;;;11.68;8.43;;;;;;;;;;5044378;28;20593;-75
2023/01/31 05:05:27;;;;;;;10.23;9.27;;;;;;;;;;5043879;28;20040;-76
2023/01/31 05:07:53;;;;;;;10.38;9.45;;;;;;;;;;5042766;28;20037;-75
2023/01/31 05:10:19;;;;;;;10.27;9.27;;;;;;;;;;5038506;28;20037;-76
2023/01/31 05:12:46;;;;;;;7.03;6.43;;;;;;;;;;5030583;28;20088;-74
2023/01/31 05:15:11;;;;;;;9.20;8.23;;;;;;;;;;5031603;28;20044;-76
2023/01/31 05:17:38;;;;;;;9.27;8.43;;;;;;;;;;5031244;28;20037;-76
2023/01/31 05:20:04;;;;;;;10.73;9.45;;;;;;;;;;5029986;28;20075;-76
2023/01/31 05:22:30;;;;;;;10.88;9.73;;;;;;;;;;5031087;28;20452;-76
2023/01/31 05:24:56;;;;;;;9.52;8.35;;;;;;;;;;5031124;28;20116;-75
2023/01/31 05:27:22;;;;;;;8.50;7.80;;;;;;;;;;5030704;28;20033;-76
2023/01/31 05:29:48;;;;;;;9.27;8.55;;;;;;;;;;5029417;28;20029;-75
2023/01/31 05:32:16;;;;;;;11.48;10.45;;;;;;;;;;5028490;28;20571;-75
2023/01/31 05:34:42;;;;;;;9.13;8.20;;;;;;;;;;5039667;28;20028;-74
2023/01/31 05:37:09;;;;;;;8.48;7.60;;;;;;;;;;5032528;28;20049;-74
2023/01/31 05:39:35;;;;;;;13.07;11.88;;;;;;;;;;5036299;28;20147;-75
2023/01/31 05:42:01;;;;;;;10.63;9.63;;;;;;;;;;5036535;28;20033;-75
2023/01/31 05:44:27;;;;;;;7.20;6.38;;;;;;;;;;5028391;28;20066;-74
2023/01/31 05:46:53;;;;;;;11.77;10.05;;;;;;;;;;5020370;28;20479;-76
2023/01/31 05:49:19;;;;;;;9.55;8.65;;;;;;;;;;5026792;28;20708;-75
2023/01/31 05:51:46;;;;;;;10.48;9.57;;;;;;;;;;5024844;28;20128;-75
2023/01/31 05:54:12;;;;;;;12.95;11.23;;;;;;;;;;5020287;28;20471;-75
2023/01/31 05:56:38;;;;;;;7.65;6.88;;;;;;;;;;5017269;28;20073;-75
2023/01/31 05:59:04;;;;;;;12.52;11.40;;;;;;;;;;5015296;28;20519;-74
2023/01/31 06:01:30;;;;;;;13.13;11.88;;;;;;;;;;5017451;28;20504;-75
2023/01/31 06:03:56;;;;;;;7.53;6.95;;;;;;;;;;5016256;28;20029;-75
2023/01/31 06:06:22;;;;;;;12.27;11.18;;;;;;;;;;5016958;28;20048;-74
2023/01/31 06:08:48;;;;;;;11.65;10.52;;;;;;;;;;5014092;28;20033;-76
2023/01/31 06:11:14;;;;;;;8.95;8.15;;;;;;;;;;5018375;28;20053;-76
2023/01/31 06:13:43;;;;;;;10.13;9.13;;;;;;;;;;5015271;28;20092;-76
2023/01/31 06:16:09;;;;;;;8.50;7.88;;;;;;;;;;5020894;28;20033;-77
2023/01/31 06:18:35;;;;;;;10.52;9.55;;;;;;;;;;5017824;28;20041;-76
2023/01/31 06:21:01;;;;;;;12.68;11.20;;;;;;;;;;5016182;28;20044;-75
2023/01/31 06:23:27;;;;;;;13.45;12.20;;;;;;;;;;5015493;28;20483;-74
2023/01/31 06:25:54;;;;;;;11.15;10.20;;;;;;;;;;5015821;28;20038;-75
2023/01/31 06:28:20;;;;;;;9.75;8.75;;;;;;;;;;5015243;28;20091;-76
2023/01/31 06:30:46;;;;;;;8.10;7.32;;;;;;;;;;5048759;28;20037;-75
2023/01/31 06:33:12;;;;;;;12.00;10.95;;;;;;;;;;5016565;28;20542;-76
2023/01/31 06:35:38;;;;;;;12.65;11.63;;;;;;;;;;5015814;28;20034;-76
2023/01/31 06:38:05;;;;;;;10.50;9.50;;;;;;;;;;5016592;28;20086;-75
2023/01/31 06:40:30;;;;;;;8.32;7.53;;;;;;;;;;5015532;28;20128;-76
2023/01/31 06:42:57;;;;;;;8.50;7.78;;;;;;;;;;5048068;28;20519;-75
2023/01/31 06:45:23;;;;;;;8.82;8.00;;;;;;;;;;5017722;28;20040;-75
2023/01/31 06:47:49;;;;;;;9.63;8.70;;;;;;;;;;5018944;28;20064;-74
2023/01/31 06:50:15;;;;;;;6.50;5.88;;;;;;;;;;5046038;28;20523;-76
2023/01/31 06:52:40;;;;;;;12.02;9.25;;;;;;;;;;5016342;28;20037;-75
2023/01/31 06:55:07;;;;;;;11.60;10.30;;;;;;;;;;5014829;28;20054;-75
2023/01/31 06:57:33;;;;;;;11.02;10.05;;;;;;;;;;5031569;28;20073;-76
2023/01/31 06:59:59;;;;;;;8.35;7.60;;;;;;;;;;5014631;28;20046;-76
2023/01/31 07:02:25;;;;;;;6.63;6.07;;;;;;;;;;5016043;28;20045;-74
2023/01/31 07:04:52;;;;;;;7.88;7.13;;;;;;;;;;5014585;28;20042;-76
2023/01/31 07:07:18;;;;;;;11.35;9.98;;;;;;;;;;5047993;28;20436;-75
2023/01/31 07:09:44;;;;;;;11.77;10.65;;;;;;;;;;5014226;28;20479;-75
2023/01/31 07:12:10;;;;;;;9.65;7.38;;;;;;;;;;5015226;28;20021;-75
2023/01/31 07:14:36;;;;;;;8.70;7.88;;;;;;;;;;5014375;28;20042;-75
2023/01/31 07:17:02;;;;;;;9.18;8.38;;;;;;;;;;5017917;28;20029;-75
2023/01/31 07:19:28;;;;;;;9.55;8.55;;;;;;;;;;5014177;28;20727;-75
2023/01/31 07:21:54;;;;;;;8.82;7.90;;;;;;;;;;5017756;28;20454;-74
2023/01/31 07:24:20;;;;;;;10.07;9.10;;;;;;;;;;5018251;28;20121;-74
2023/01/31 07:26:46;;;;;;;9.10;8.38;;;;;;;;;;5009008;28;20128;-77
2023/01/31 07:29:12;;;;;;;9.57;8.65;;;;;;;;;;5013913;28;20453;-81
2023/01/31 07:31:38;;;;;;;11.35;10.32;;;;;;;;;;5005692;28;20049;-74
2023/01/31 07:34:04;;;;;;;9.73;8.77;;;;;;;;;;5006546;28;20561;-73
2023/01/31 07:36:30;;;;;;;8.45;7.57;;;;;;;;;;5006874;28;20025;-74
2023/01/31 07:38:57;;;;;;;9.77;8.77;;;;;;;;;;5005992;28;20045;-74
2023/01/31 07:41:23;;;;;;;10.60;9.55;;;;;;;;;;5005988;28;20045;-74
2023/01/31 07:43:49;;;;;;;11.80;10.60;;;;;;;;;;5006231;28;20454;-73
2023/01/31 07:46:15;;;;;;;10.07;9.02;;;;;;;;;;5005260;28;20069;-75
2023/01/31 07:48:41;;;;;;;8.27;7.35;;;;;;;;;;5003064;28;20099;-74
2023/01/31 07:51:08;;;;;;;8.90;8.13;;;;;;;;;;5004216;28;20397;-74
2023/01/31 07:53:35;;;;;;;9.13;8.35;;;;;;;;;;5002597;28;20147;-74
2023/01/31 07:56:08;;;;;;;7.70;7.00;;;;;;;;;;5007114;28;20512;-73
2023/01/31 07:58:35;;;;;;;7.40;6.63;;;;;;;;;;5007933;28;20041;-73
2023/01/31 08:03:46;;;;;;;7.68;7.00;;;;;;;;;;4991673;28;20125;-74
2023/01/31 08:06:12;;;;;;;9.43;7.97;;;;;;;;;;5007350;28;20108;-74
2023/01/31 08:08:39;;;;;;;10.82;9.82;;;;;;;;;;5007049;28;20749;-73
2023/01/31 08:11:06;;;;;;;10.90;8.30;;;;;;;;;;4989363;28;20030;-74
2023/01/31 08:13:32;;;;;;;10.32;9.38;;;;;;;;;;5006234;28;20048;-78
2023/01/31 08:15:58;;;;;;;11.70;10.52;;;;;;;;;;5001424;28;20033;-75
2023/01/31 08:18:25;;;;;;;10.77;9.75;;;;;;;;;;5004868;28;20516;-76
2023/01/31 08:20:51;;;;;;;6.97;6.13;;;;;;;;;;5008736;28;22026;-73
2023/01/31 08:23:17;;;;;;;11.13;10.23;;;;;;;;;;5007640;28;20613;-73
2023/01/31 08:25:43;;;;;;;12.07;10.57;;;;;;;;;;5008322;28;20030;-73
2023/01/31 08:28:09;;;;;;;11.05;10.02;;;;;;;;;;5008893;28;20048;-74
2023/01/31 08:30:38;;;;;;;11.20;10.10;;;;;;;;;;5006796;28;20332;-73
2023/01/31 08:33:04;;;;;;;12.05;10.88;;;;;;;;;;5006575;28;20037;-73
2023/01/31 08:35:30;;;;;;;12.43;11.38;;;;;;;;;;5008666;28;20025;-74
2023/01/31 08:37:56;;;;;;;10.52;9.63;;;;;;;;;;5006884;28;20537;-74
2023/01/31 08:40:23;;;;;;;10.73;9.85;;;;;;;;;;5008608;28;20045;-73
2023/01/31 08:42:59;;;;;;;7.70;7.00;;;;;;;;;;5007326;28;20025;-73
2023/01/31 08:45:25;;;;;;;8.00;7.35;;;;;;;;;;5007473;28;20045;-73
2023/01/31 08:47:52;;;;;;;11.75;10.75;;;;;;;;;;5008538;28;21897;-74
2023/01/31 08:50:18;;;;;;;9.25;8.35;;;;;;;;;;5007195;28;20412;-73
2023/01/31 08:52:44;;;;;;;12.63;11.27;;;;;;;;;;5008937;28;20034;-74
2023/01/31 08:55:12;;;;;;;8.45;7.65;;;;;;;;;;5008031;28;20876;-74
2023/01/31 08:57:43;;;;;;;8.45;7.65;;;;;;;;;;5007222;28;20033;-73
2023/01/31 09:00:09;;;;;;;10.27;9.27;;;;;;;;;;5008019;28;20043;-74
2023/01/31 09:02:35;;;;;;;12.05;8.40;;;;;;;;;;5006805;28;20041;-73
2023/01/31 09:05:01;;;;;;;11.95;10.68;;;;;;;;;;5006249;28;20792;-74
2023/01/31 09:07:27;;;;;;;7.47;6.85;;;;;;;;;;5006885;28;20120;-73
2023/01/31 09:09:53;;;;;;;7.25;5.55;;;;;;;;;;5008202;28;20042;-73
2023/01/31 09:12:20;;;;;;;8.82;8.20;;;;;;;;;;5007777;28;21996;-74
2023/01/31 09:14:46;;;;;;;12.48;11.32;;;;;;;;;;5007785;28;20683;-73
2023/01/31 09:17:12;;;;;;;12.30;9.45;;;;;;;;;;5007991;28;20037;-75
2023/01/31 09:19:38;;;;;;;10.85;9.82;;;;;;;;;;5006500;28;20124;-74
2023/01/31 09:22:04;;;;;;;11.30;10.30;;;;;;;;;;5022317;28;20035;-75
2023/01/31 09:24:30;;;;;;;11.27;10.18;;;;;;;;;;5006067;28;20092;-75
2023/01/31 09:26:56;;;;;;;10.60;9.60;;;;;;;;;;4989419;28;20033;-76
2023/01/31 09:29:22;;;;;;;11.80;10.60;;;;;;;;;;5007187;28;20056;-78
2023/01/31 09:31:51;;;;;;;9.18;8.38;;;;;;;;;;5005235;28;20044;-75
2023/01/31 09:34:17;;;;;;;9.52;8.63;;;;;;;;;;5007443;28;20072;-74
2023/01/31 09:36:44;;;;;;;9.75;8.63;;;;;;;;;;5007098;28;20049;-73
2023/01/31 09:39:10;;;;;;;11.40;10.40;;;;;;;;;;5008560;28;20037;-77
2023/01/31 09:41:36;;;;;;;9.52;8.63;;;;;;;;;;5006618;28;20063;-74
2023/01/31 09:44:04;;;;;;;8.43;7.70;;;;;;;;;;5039340;28;20480;-75
2023/01/31 09:46:37;;;;;;;7.43;6.82;;;;;;;;;;5022258;28;20477;-75
2023/01/31 09:49:04;;;;;;;9.88;8.98;;;;;;;;;;5007509;28;20029;-78
2023/01/31 09:51:31;;;;;;;8.00;7.28;;;;;;;;;;5040381;28;20139;-78
2023/01/31 09:53:57;;;;;;;10.00;9.05;;;;;;;;;;5008804;28;20034;-73
2023/01/31 09:56:39;;;;;;;11.32;10.15;;;;;;;;;;5007292;28;20041;-76
2023/01/31 09:59:11;;;;;;;7.68;6.97;;;;;;;;;;5006020;28;20055;-76
2023/01/31 10:01:42;;;;;;;8.25;7.45;;;;;;;;;;5005074;28;20128;-75
2023/01/31 10:04:08;;;;;;;;;;;;;;;;;;5005188;28;20514;-75
2023/01/31 10:06:53;;;;;;;9.75;8.90;;;;;;;;;;5007557;28;20008;-75
2023/01/31 10:09:34;;;;;;;10.80;9.85;;;;;;;;;;5008037;28;20228;-74
2023/01/31 10:12:00;;;;;;;;;;;;;;;;;;5008731;28;20038;-74
2023/01/31 10:14:26;;;;;;;11.30;10.23;;;;;;;;;;5006960;28;19917;-74
2023/01/31 10:16:57;;;;;;;8.45;7.75;;;;;;;;;;5007083;28;20052;-73
2023/01/31 10:19:52;;;;;;;11.13;9.55;;;;;;;;;;5006576;28;20195;-74
2023/01/31 10:22:21;;;;;;;8.43;7.65;;;;;;;;;;4952670;28;20097;-73
2023/01/31 10:24:48;;;;;;;9.90;9.00;;;;;;;;;;4988759;28;20029;-74
2023/01/31 10:27:20;;;;;;;10.00;9.00;;;;;;;;;;5005972;28;21803;-74
2023/01/31 10:29:50;;;;;;;10.55;9.50;;;;;;;;;;5007052;28;20037;-74
2023/01/31 10:32:36;;;;;;;11.15;10.02;;;;;;;;;;5007542;28;20088;-75
2023/01/31 10:35:11;;;;;;;11.23;10.18;;;;;;;;;;5004461;28;20422;-73
2023/01/31 10:37:45;;;;;;;9.13;8.27;;;;;;;;;;5004936;28;20120;-73
2023/01/31 10:40:15;;;;;;;9.90;8.18;;;;;;;;;;5005039;28;20052;-74
2023/01/31 10:42:41;;;;;;;6.72;6.10;;;;;;;;;;5005835;28;20406;-75
2023/01/31 10:45:08;;;;;;;8.02;7.32;;;;;;;;;;5005709;28;20037;-73
2023/01/31 10:47:35;;;;;;;7.18;6.30;;;;;;;;;;5004915;28;20448;-73
2023/01/31 10:50:04;;;;;;;9.63;8.57;;;;;;;;;;5037894;28;20043;-74
2023/01/31 10:52:36;;;;;;;10.23;9.25;;;;;;;;;;5004169;28;20128;-76
2023/01/31 10:55:02;;;;;;;9.18;7.80;;;;;;;;;;5004633;28;20697;-74
2023/01/31 10:57:28;;;;;;;8.60;7.82;;;;;;;;;;5006270;28;20407;-78
2023/01/31 10:59:55;;;;;;;10.95;9.82;;;;;;;;;;5007965;28;20049;-76
2023/01/31 11:02:21;;;;;;;10.70;9.65;;;;;;;;;;5006960;28;20042;-74
2023/01/31 11:04:48;;;;;;;11.73;10.63;;;;;;;;;;5038154;28;20045;-73
2023/01/31 11:07:14;;;;;;;9.45;7.95;;;;;;;;;;5007689;28;20175;-72
2023/01/31 11:09:42;;;;;;;11.60;9.18;;;;;;;;;;5007457;28;20038;-72
2023/01/31 11:12:08;;;;;;;8.73;7.30;;;;;;;;;;5004492;28;20135;-73
2023/01/31 11:14:35;;;;;;;9.88;8.88;;;;;;;;;;5007724;28;20049;-73
2023/01/31 11:17:04;;;;;;;9.35;8.48;;;;;;;;;;5008874;28;20033;-74
2023/01/31 11:19:30;;;;;;;11.30;10.23;;;;;;;;;;5008662;28;20042;-75
2023/01/31 11:21:56;;;;;;;10.93;9.82;;;;;;;;;;5008185;28;20042;-75
2023/01/31 11:24:26;;;;;;;11.48;10.27;;;;;;;;;;5007646;28;20037;-74
2023/01/31 11:26:54;;;;;;;12.25;9.68;;;;;;;;;;5007971;28;20041;-75
2023/01/31 11:29:27;;;;;;;9.90;8.30;;;;;;;;;;5011591;28;20106;-74
2023/01/31 11:31:53;;;;;;;13.55;12.10;;;;;;;;;;5011114;28;20049;-74
2023/01/31 11:34:23;;;;;;;8.98;8.07;;;;;;;;;;5011347;28;20038;-74
2023/01/31 11:36:49;;;;;;;12.00;9.05;;;;;;;;;;5009386;28;20061;-72
2023/01/31 11:39:37;;;;;;;9.38;8.48;;;;;;;;;;5010779;28;20104;-73
2023/01/31 11:42:07;;;;;;;8.93;8.15;;;;;;;;;;5010956;28;20037;-73
2023/01/31 11:44:33;;;;;;;6.15;5.68;;;;;;;;;;5010496;28;20041;-72
2023/01/31 11:47:03;;;;;;;9.23;8.32;;;;;;;;;;5010366;28;20037;-72
2023/01/31 11:49:30;;;;;;;12.85;8.13;;;;;;;;;;5009820;28;20099;-73
2023/01/31 11:51:57;;;;;;;10.27;9.23;;;;;;;;;;5007044;28;20029;-72
2023/01/31 11:54:24;;;;;;;11.65;10.65;;;;;;;;;;5008908;28;20160;-72
2023/01/31 11:56:50;;;;;;;10.70;9.27;;;;;;;;;;5010589;28;20033;-73
2023/01/31 11:59:18;;;;;;;12.48;10.30;;;;;;;;;;5010778;28;20103;-73
2023/01/31 12:01:48;;;;;;;12.23;11.18;;;;;;;;;;5009991;28;20038;-74
2023/01/31 12:04:16;;;;;;;7.70;7.00;;;;;;;;;;5012181;28;20748;-72
2023/01/31 12:06:42;;;;;;;10.73;9.65;;;;;;;;;;5010119;28;20048;-72
2023/01/31 12:09:21;;;;;;;11.15;10.10;;;;;;;;;;5018423;28;20034;-74
2023/01/31 12:11:50;;;;;;;11.25;10.23;;;;;;;;;;5019573;28;20167;-77
2023/01/31 12:14:18;;;;;;;7.95;7.25;;;;;;;;;;5023084;28;20033;-76
2023/01/31 12:16:44;;;;;;;6.15;5.65;;;;;;;;;;5038002;28;20091;-77
2023/01/31 12:19:10;;;;;;;13.38;12.00;;;;;;;;;;5019034;28;20094;-76
2023/01/31 12:21:55;;;;;;;11.98;10.77;;;;;;;;;;5010601;28;20041;-75
2023/01/31 12:24:24;;;;;;;7.40;6.63;;;;;;;;;;5011198;28;20052;-77
2023/01/31 12:27:12;;;;;;;10.70;9.57;;;;;;;;;;5011158;28;20124;-75
2023/01/31 12:29:53;;;;;;;10.00;8.52;;;;;;;;;;5008985;28;20510;-75
2023/01/31 12:32:32;;;;;;;9.05;8.20;;;;;;;;;;5010141;28;20033;-75
2023/01/31 12:35:07;;;;;;;9.80;8.90;;;;;;;;;;5011649;28;20037;-75
2023/01/31 12:37:52;;;;;;;11.32;10.15;;;;;;;;;;5009870;28;20053;-76
2023/01/31 12:40:20;;;;;;;8.75;7.95;;;;;;;;;;5009686;28;20239;-74
2023/01/31 12:43:09;;;;;;;11.38;10.27;;;;;;;;;;5010134;28;20108;-75
2023/01/31 12:45:39;;;;;;;10.48;9.45;;;;;;;;;;4980747;28;20504;-73
2023/01/31 12:48:09;;;;;;;12.52;9.13;;;;;;;;;;5007343;28;20057;-75
2023/01/31 12:50:47;;;;;;;10.07;9.00;;;;;;;;;;5006644;28;20306;-75
2023/01/31 12:53:22;;;;;;;7.15;6.45;;;;;;;;;;5008035;28;20030;-75
2023/01/31 12:55:51;;;;;;;8.10;7.35;;;;;;;;;;5008962;28;20098;-75
2023/01/31 12:58:32;;;;;;;8.68;7.90;;;;;;;;;;5009642;28;20519;-76
2023/01/31 13:01:01;;;;;;;10.23;8.52;;;;;;;;;;5009538;28;20878;-74
2023/01/31 13:03:31;;;;;;;8.93;7.78;;;;;;;;;;4991590;28;20037;-74
2023/01/31 13:05:58;;;;;;;7.68;6.97;;;;;;;;;;5023945;28;20197;-75
2023/01/31 13:08:25;;;;;;;9.88;8.70;;;;;;;;;;5007369;28;20033;-75
2023/01/31 13:10:54;;;;;;;10.63;9.52;;;;;;;;;;5008803;28;20179;-77
2023/01/31 13:13:21;;;;;;;9.43;7.53;;;;;;;;;;5007184;28;20751;-73
2023/01/31 13:15:49;;;;;;;8.80;7.97;;;;;;;;;;5007769;28;20128;-75
2023/01/31 13:18:15;;;;;;;7.93;7.20;;;;;;;;;;5024432;28;20136;-75
2023/01/31 13:20:41;;;;;;;9.48;8.65;;;;;;;;;;5118459;22;20143;-80
2023/01/31 13:23:12;;;;;;;9.88;8.35;;;;;;;;;;5045731;28;20039;-83
2023/01/31 13:25:39;;;;;;;11.48;9.50;;;;;;;;;;5025898;28;20043;-82
2023/01/31 13:28:12;;;;;;;8.50;7.60;;;;;;;;;;5039436;28;20036;-83
2023/01/31 13:30:41;;;;;;;12.20;10.05;;;;;;;;;;5063365;28;20025;-83
2023/01/31 13:33:27;;;;;;;9.57;8.68;;;;;;;;;;5062523;28;20039;-81
2023/01/31 13:35:59;;;;;;;13.10;11.88;;;;;;;;;;5009500;28;20102;-83
2023/01/31 13:38:25;;;;;;;11.13;9.02;;;;;;;;;;5060691;28;20043;-83
2023/01/31 13:40:53;;;;;;;8.95;8.13;;;;;;;;;;5039797;28;20037;-83
2023/01/31 13:43:19;;;;;;;10.32;7.30;;;;;;;;;;5047625;28;20128;-83
2023/01/31 13:45:51;;;;;;;10.60;9.48;;;;;;;;;;5048161;28;20101;-83
2023/01/31 13:48:17;;;;;;;;;;;;;;;;;;5069087;28;20484;-84
2023/01/31 13:50:43;;;;;;;7.53;6.57;;;;;;;;;;5062426;28;19917;-81
2023/01/31 13:53:14;;;;;;;10.18;9.13;;;;;;;;;;5035592;28;20029;-80
2023/01/31 13:55:41;;;;;;;9.88;8.93;;;;;;;;;;5032201;28;20032;-80
2023/01/31 13:58:12;;;;;;;11.98;9.68;;;;;;;;;;5030324;28;20205;-80
2023/01/31 14:00:46;;;;;;;11.73;8.27;;;;;;;;;;5015338;28;20044;-81
2023/01/31 14:03:12;;;;;;;9.77;8.73;;;;;;;;;;5035774;28;20131;-81
2023/01/31 14:05:41;;;;;;;12.45;10.27;;;;;;;;;;5062818;28;20154;-84
2023/01/31 14:08:33;;;;;;;8.57;7.25;;;;;;;;;;5029844;28;20040;-80
2023/01/31 14:11:00;;;;;;;9.77;7.03;;;;;;;;;;5012635;28;20171;-81
2023/01/31 14:13:35;;;;;;;9.93;8.70;;;;;;;;;;5042498;28;20033;-83
2023/01/31 14:16:01;;;;;;;12.50;9.95;;;;;;;;;;5063568;28;20629;-83
2023/01/31 14:18:39;;;;;;;11.07;10.00;;;;;;;;;;5037478;28;20043;-82
2023/01/31 14:21:26;;;;;;;14.18;12.50;;;;;;;;;;5034281;28;20139;-83
2023/01/31 14:23:52;;;;;;;12.05;8.85;;;;;;;;;;5067124;28;20076;-84
2023/01/31 14:26:35;;;;;;;12.40;10.68;;;;;;;;;;5026780;28;20033;-82
2023/01/31 14:29:22;;;;;;;11.10;10.00;;;;;;;;;;5059710;28;20135;-82
2023/01/31 14:31:48;;;;;;;10.60;9.10;;;;;;;;;;5059642;28;20292;-82
2023/01/31 14:34:18;;;;;;;9.75;8.65;;;;;;;;;;5040888;28;20036;-83
2023/01/31 14:36:46;;;;;;;12.50;10.07;;;;;;;;;;5057966;28;20025;-83
2023/01/31 14:39:16;;;;;;;13.85;12.45;;;;;;;;;;5039995;28;20036;-81
2023/01/31 14:41:45;;;;;;;11.43;10.20;;;;;;;;;;5060112;28;20043;-83
2023/01/31 14:44:11;;;;;;;9.90;8.57;;;;;;;;;;5057002;28;20664;-83
2023/01/31 14:47:01;;;;;;;12.75;11.35;;;;;;;;;;5055672;28;20078;-84
2023/01/31 14:49:41;;;;;;;11.23;8.57;;;;;;;;;;5023954;28;20033;-83
2023/01/31 14:52:27;;;;;;;8.85;8.05;;;;;;;;;;5045908;28;20064;-82